sensor_id;sensor_type;location;lat;lon;timestamp;P1;durP1;ratioP1;P2;durP2;ratioP2
69256;SDS011;56376;53.356;-1.748;2022-07-23T00:01:20;2.50;;;2.30;;
69256;SDS011;56376;53.356;-1.748;2022-07-23T00:03:48;2.75;;;2.25;;
69256;SDS011;56376;53.356;-1.748;2022-07-23T00:06:14;2.53;;;2.33;;
69256;SDS011;56376;53.356;-1.748;2022-07-23T00:08:40;2.30;;;2.05;;
69256;SDS011;56376;53.356;-1.748;2022-07-23T00:11:05;2.75;;;1.90;;
69256;SDS011;56376;53.356;-1.748;2022-07-23T00:13:31;3.45;;;2.63;;
69256;SDS011;56376;53.356;-1.748;2022-07-23T00:15:57;2.80;;;2.17;;
69256;SDS011;56376;53.356;-1.748;2022-07-23T00:18:22;2.47;;;2.13;;
69256;SDS011;56376;53.356;-1.748;2022-07-23T00:20:48;2.33;;;2.13;;
69256;SDS011;56376;53.356;-1.748;2022-07-23T00:23:13;3.13;;;2.35;;
69256;SDS011;56376;53.356;-1.748;2022-07-23T00:25:39;3.42;;;2.42;;
69256;SDS011;56376;53.356;-1.748;2022-07-23T00:28:04;2.58;;;2.38;;
69256;SDS011;56376;53.356;-1.748;2022-07-23T00:30:30;2.67;;;2.08;;
69256;SDS011;56376;53.356;-1.748;2022-07-23T00:33:00;2.83;;;2.60;;
69256;SDS011;56376;53.356;-1.748;2022-07-23T00:35:29;2.88;;;2.28;;
69256;SDS011;56376;53.356;-1.748;2022-07-23T00:37:56;2.95;;;2.53;;
69256;SDS011;56376;53.356;-1.748;2022-07-23T00:40:22;3.90;;;2.53;;
69256;SDS011;56376;53.356;-1.748;2022-07-23T00:42:48;2.38;;;2.17;;
69256;SDS011;56376;53.356;-1.748;2022-07-23T00:45:13;2.63;;;2.42;;
69256;SDS011;56376;53.356;-1.748;2022-07-23T00:47:39;2.85;;;2.65;;
69256;SDS011;56376;53.356;-1.748;2022-07-23T00:50:06;2.50;;;2.30;;
69256;SDS011;56376;53.356;-1.748;2022-07-23T00:52:34;2.38;;;2.17;;
69256;SDS011;56376;53.356;-1.748;2022-07-23T00:55:00;3.72;;;2.38;;
69256;SDS011;56376;53.356;-1.748;2022-07-23T00:57:27;2.42;;;2.22;;
69256;SDS011;56376;53.356;-1.748;2022-07-23T00:59:52;2.55;;;2.30;;
69256;SDS011;56376;53.356;-1.748;2022-07-23T01:02:18;2.75;;;2.53;;
69256;SDS011;56376;53.356;-1.748;2022-07-23T01:04:43;2.50;;;2.08;;
69256;SDS011;56376;53.356;-1.748;2022-07-23T01:07:09;2.53;;;2.30;;
69256;SDS011;56376;53.356;-1.748;2022-07-23T01:09:34;2.45;;;2.25;;
69256;SDS011;56376;53.356;-1.748;2022-07-23T01:12:01;2.63;;;1.95;;
69256;SDS011;56376;53.356;-1.748;2022-07-23T01:14:27;2.90;;;2.50;;
69256;SDS011;56376;53.356;-1.748;2022-07-23T01:16:53;2.65;;;2.30;;
69256;SDS011;56376;53.356;-1.748;2022-07-23T01:19:18;2.75;;;2.40;;
69256;SDS011;56376;53.356;-1.748;2022-07-23T01:21:45;2.55;;;2.35;;
69256;SDS011;56376;53.356;-1.748;2022-07-23T01:24:14;2.80;;;2.60;;
69256;SDS011;56376;53.356;-1.748;2022-07-23T01:26:41;3.08;;;2.50;;
69256;SDS011;56376;53.356;-1.748;2022-07-23T01:29:08;2.65;;;2.45;;
69256;SDS011;56376;53.356;-1.748;2022-07-23T01:31:34;2.38;;;2.00;;
69256;SDS011;56376;53.356;-1.748;2022-07-23T01:33:59;3.85;;;2.60;;
69256;SDS011;56376;53.356;-1.748;2022-07-23T01:36:25;2.38;;;2.17;;
69256;SDS011;56376;53.356;-1.748;2022-07-23T01:38:50;2.70;;;2.50;;
69256;SDS011;56376;53.356;-1.748;2022-07-23T01:41:16;2.63;;;2.42;;
69256;SDS011;56376;53.356;-1.748;2022-07-23T01:43:41;3.15;;;2.67;;
69256;SDS011;56376;53.356;-1.748;2022-07-23T01:46:07;2.85;;;2.15;;
69256;SDS011;56376;53.356;-1.748;2022-07-23T01:48:32;2.72;;;2.50;;
69256;SDS011;56376;53.356;-1.748;2022-07-23T01:50:58;2.63;;;2.42;;
69256;SDS011;56376;53.356;-1.748;2022-07-23T01:53:23;2.40;;;2.20;;
69256;SDS011;56376;53.356;-1.748;2022-07-23T01:55:48;3.10;;;2.40;;
69256;SDS011;56376;53.356;-1.748;2022-07-23T01:58:14;3.15;;;2.85;;
69256;SDS011;56376;53.356;-1.748;2022-07-23T02:00:39;3.33;;;2.40;;
69256;SDS011;56376;53.356;-1.748;2022-07-23T02:03:05;2.70;;;2.50;;
69256;SDS011;56376;53.356;-1.748;2022-07-23T02:05:30;2.53;;;2.25;;
69256;SDS011;56376;53.356;-1.748;2022-07-23T02:07:59;2.00;;;1.90;;
69256;SDS011;56376;53.356;-1.748;2022-07-23T02:10:25;2.60;;;2.40;;
69256;SDS011;56376;53.356;-1.748;2022-07-23T02:12:51;2.75;;;2.55;;
69256;SDS011;56376;53.356;-1.748;2022-07-23T02:15:16;2.63;;;2.38;;
69256;SDS011;56376;53.356;-1.748;2022-07-23T02:17:42;2.80;;;2.58;;
69256;SDS011;56376;53.356;-1.748;2022-07-23T02:20:08;3.15;;;2.35;;
69256;SDS011;56376;53.356;-1.748;2022-07-23T02:22:34;2.30;;;2.10;;
69256;SDS011;56376;53.356;-1.748;2022-07-23T02:25:01;2.45;;;2.10;;
69256;SDS011;56376;53.356;-1.748;2022-07-23T02:27:26;2.45;;;2.20;;
69256;SDS011;56376;53.356;-1.748;2022-07-23T02:29:53;2.78;;;2.47;;
69256;SDS011;56376;53.356;-1.748;2022-07-23T02:32:19;3.47;;;2.28;;
69256;SDS011;56376;53.356;-1.748;2022-07-23T02:34:46;2.20;;;1.92;;
69256;SDS011;56376;53.356;-1.748;2022-07-23T02:37:12;3.22;;;2.85;;
69256;SDS011;56376;53.356;-1.748;2022-07-23T02:39:38;2.53;;;2.17;;
69256;SDS011;56376;53.356;-1.748;2022-07-23T02:42:03;2.58;;;2.00;;
69256;SDS011;56376;53.356;-1.748;2022-07-23T02:44:29;1.70;;;1.60;;
69256;SDS011;56376;53.356;-1.748;2022-07-23T02:46:54;2.42;;;2.15;;
69256;SDS011;56376;53.356;-1.748;2022-07-23T02:49:20;2.88;;;2.10;;
69256;SDS011;56376;53.356;-1.748;2022-07-23T02:51:45;2.78;;;2.40;;
69256;SDS011;56376;53.356;-1.748;2022-07-23T02:54:11;3.25;;;2.20;;
69256;SDS011;56376;53.356;-1.748;2022-07-23T02:56:36;2.40;;;2.20;;
69256;SDS011;56376;53.356;-1.748;2022-07-23T02:59:01;2.38;;;2.17;;
69256;SDS011;56376;53.356;-1.748;2022-07-23T03:01:27;2.80;;;2.22;;
69256;SDS011;56376;53.356;-1.748;2022-07-23T03:03:52;2.40;;;2.20;;
69256;SDS011;56376;53.356;-1.748;2022-07-23T03:06:18;3.55;;;2.30;;
69256;SDS011;56376;53.356;-1.748;2022-07-23T03:08:43;2.95;;;2.35;;
69256;SDS011;56376;53.356;-1.748;2022-07-23T03:11:08;3.08;;;2.78;;
69256;SDS011;56376;53.356;-1.748;2022-07-23T03:13:39;2.13;;;1.92;;
69256;SDS011;56376;53.356;-1.748;2022-07-23T03:16:06;2.40;;;2.17;;
69256;SDS011;56376;53.356;-1.748;2022-07-23T03:18:32;3.28;;;2.30;;
69256;SDS011;56376;53.356;-1.748;2022-07-23T03:20:58;2.60;;;2.20;;
69256;SDS011;56376;53.356;-1.748;2022-07-23T03:23:23;2.47;;;2.20;;
69256;SDS011;56376;53.356;-1.748;2022-07-23T03:25:49;3.25;;;2.45;;
69256;SDS011;56376;53.356;-1.748;2022-07-23T03:28:15;3.53;;;2.40;;
69256;SDS011;56376;53.356;-1.748;2022-07-23T03:30:44;3.83;;;3.00;;
69256;SDS011;56376;53.356;-1.748;2022-07-23T03:33:18;3.33;;;2.47;;
69256;SDS011;56376;53.356;-1.748;2022-07-23T03:35:44;2.53;;;2.33;;
69256;SDS011;56376;53.356;-1.748;2022-07-23T03:38:10;2.80;;;2.60;;
69256;SDS011;56376;53.356;-1.748;2022-07-23T03:40:36;2.72;;;2.03;;
69256;SDS011;56376;53.356;-1.748;2022-07-23T03:43:01;2.25;;;2.00;;
69256;SDS011;56376;53.356;-1.748;2022-07-23T03:45:27;3.10;;;2.47;;
69256;SDS011;56376;53.356;-1.748;2022-07-23T03:47:53;2.72;;;2.40;;
69256;SDS011;56376;53.356;-1.748;2022-07-23T03:50:19;3.40;;;3.10;;
69256;SDS011;56376;53.356;-1.748;2022-07-23T03:52:45;3.60;;;2.80;;
69256;SDS011;56376;53.356;-1.748;2022-07-23T03:55:10;4.63;;;2.67;;
69256;SDS011;56376;53.356;-1.748;2022-07-23T03:57:36;2.65;;;2.45;;
69256;SDS011;56376;53.356;-1.748;2022-07-23T04:00:02;3.10;;;2.67;;
69256;SDS011;56376;53.356;-1.748;2022-07-23T04:02:30;2.90;;;2.70;;
69256;SDS011;56376;53.356;-1.748;2022-07-23T04:04:55;2.60;;;2.40;;
69256;SDS011;56376;53.356;-1.748;2022-07-23T04:07:21;2.58;;;2.38;;
69256;SDS011;56376;53.356;-1.748;2022-07-23T04:09:47;3.47;;;3.17;;
69256;SDS011;56376;53.356;-1.748;2022-07-23T04:12:12;3.50;;;3.20;;
69256;SDS011;56376;53.356;-1.748;2022-07-23T04:14:38;3.42;;;2.60;;
69256;SDS011;56376;53.356;-1.748;2022-07-23T04:17:04;2.95;;;2.75;;
69256;SDS011;56376;53.356;-1.748;2022-07-23T04:19:29;2.63;;;2.42;;
69256;SDS011;56376;53.356;-1.748;2022-07-23T04:21:55;2.72;;;2.53;;
69256;SDS011;56376;53.356;-1.748;2022-07-23T04:24:21;2.65;;;2.45;;
69256;SDS011;56376;53.356;-1.748;2022-07-23T04:26:47;2.70;;;2.50;;
69256;SDS011;56376;53.356;-1.748;2022-07-23T04:29:12;3.03;;;2.80;;
69256;SDS011;56376;53.356;-1.748;2022-07-23T04:31:37;3.40;;;2.60;;
69256;SDS011;56376;53.356;-1.748;2022-07-23T04:34:03;3.00;;;2.67;;
69256;SDS011;56376;53.356;-1.748;2022-07-23T04:36:29;3.78;;;3.47;;
69256;SDS011;56376;53.356;-1.748;2022-07-23T04:38:54;3.40;;;2.90;;
69256;SDS011;56376;53.356;-1.748;2022-07-23T04:41:20;3.08;;;2.67;;
69256;SDS011;56376;53.356;-1.748;2022-07-23T04:43:45;2.78;;;2.58;;
69256;SDS011;56376;53.356;-1.748;2022-07-23T04:46:11;2.72;;;2.53;;
69256;SDS011;56376;53.356;-1.748;2022-07-23T04:48:36;2.47;;;2.28;;
69256;SDS011;56376;53.356;-1.748;2022-07-23T04:51:02;3.08;;;2.67;;
69256;SDS011;56376;53.356;-1.748;2022-07-23T04:53:28;2.30;;;2.03;;
69256;SDS011;56376;53.356;-1.748;2022-07-23T04:55:53;2.47;;;2.28;;
69256;SDS011;56376;53.356;-1.748;2022-07-23T04:58:19;3.42;;;2.50;;
69256;SDS011;56376;53.356;-1.748;2022-07-23T05:00:45;2.88;;;2.63;;
69256;SDS011;56376;53.356;-1.748;2022-07-23T05:03:11;3.08;;;2.40;;
69256;SDS011;56376;53.356;-1.748;2022-07-23T05:05:36;2.75;;;2.53;;
69256;SDS011;56376;53.356;-1.748;2022-07-23T05:08:02;3.05;;;2.75;;
69256;SDS011;56376;53.356;-1.748;2022-07-23T05:10:28;3.20;;;2.90;;
69256;SDS011;56376;53.356;-1.748;2022-07-23T05:12:53;3.42;;;3.13;;
69256;SDS011;56376;53.356;-1.748;2022-07-23T05:15:18;3.65;;;3.10;;
69256;SDS011;56376;53.356;-1.748;2022-07-23T05:17:44;3.92;;;3.30;;
69256;SDS011;56376;53.356;-1.748;2022-07-23T05:20:09;3.72;;;3.40;;
69256;SDS011;56376;53.356;-1.748;2022-07-23T05:22:35;3.30;;;2.90;;
69256;SDS011;56376;53.356;-1.748;2022-07-23T05:25:01;3.50;;;3.20;;
69256;SDS011;56376;53.356;-1.748;2022-07-23T05:27:26;3.55;;;3.17;;
69256;SDS011;56376;53.356;-1.748;2022-07-23T05:29:51;3.80;;;3.50;;
69256;SDS011;56376;53.356;-1.748;2022-07-23T05:32:17;4.35;;;3.95;;
69256;SDS011;56376;53.356;-1.748;2022-07-23T05:34:42;5.32;;;4.38;;
69256;SDS011;56376;53.356;-1.748;2022-07-23T05:37:08;4.43;;;4.03;;
69256;SDS011;56376;53.356;-1.748;2022-07-23T05:39:33;4.20;;;3.80;;
69256;SDS011;56376;53.356;-1.748;2022-07-23T05:41:59;3.67;;;3.33;;
69256;SDS011;56376;53.356;-1.748;2022-07-23T05:44:24;4.28;;;3.83;;
69256;SDS011;56376;53.356;-1.748;2022-07-23T05:46:49;4.40;;;4.00;;
69256;SDS011;56376;53.356;-1.748;2022-07-23T05:49:15;3.63;;;3.33;;
69256;SDS011;56376;53.356;-1.748;2022-07-23T05:51:40;3.88;;;3.50;;
69256;SDS011;56376;53.356;-1.748;2022-07-23T05:54:06;3.38;;;3.08;;
69256;SDS011;56376;53.356;-1.748;2022-07-23T05:56:31;3.58;;;3.15;;
69256;SDS011;56376;53.356;-1.748;2022-07-23T05:58:57;4.47;;;4.07;;
69256;SDS011;56376;53.356;-1.748;2022-07-23T06:01:22;4.45;;;4.05;;
69256;SDS011;56376;53.356;-1.748;2022-07-23T06:03:48;4.43;;;4.03;;
69256;SDS011;56376;53.356;-1.748;2022-07-23T06:06:13;4.13;;;3.75;;
69256;SDS011;56376;53.356;-1.748;2022-07-23T06:08:39;4.82;;;4.28;;
69256;SDS011;56376;53.356;-1.748;2022-07-23T06:11:04;3.58;;;3.28;;
69256;SDS011;56376;53.356;-1.748;2022-07-23T06:13:30;4.13;;;3.72;;
69256;SDS011;56376;53.356;-1.748;2022-07-23T06:15:55;3.85;;;3.55;;
69256;SDS011;56376;53.356;-1.748;2022-07-23T06:18:20;4.32;;;3.92;;
69256;SDS011;56376;53.356;-1.748;2022-07-23T06:20:46;5.07;;;4.60;;
69256;SDS011;56376;53.356;-1.748;2022-07-23T06:23:11;4.90;;;4.50;;
69256;SDS011;56376;53.356;-1.748;2022-07-23T06:25:37;5.45;;;4.53;;
69256;SDS011;56376;53.356;-1.748;2022-07-23T06:28:03;5.40;;;4.90;;
69256;SDS011;56376;53.356;-1.748;2022-07-23T06:30:29;4.63;;;4.22;;
69256;SDS011;56376;53.356;-1.748;2022-07-23T06:32:54;4.50;;;4.10;;
69256;SDS011;56376;53.356;-1.748;2022-07-23T06:35:20;5.00;;;4.03;;
69256;SDS011;56376;53.356;-1.748;2022-07-23T06:37:45;4.45;;;3.85;;
69256;SDS011;56376;53.356;-1.748;2022-07-23T06:40:11;4.90;;;4.40;;
69256;SDS011;56376;53.356;-1.748;2022-07-23T06:42:37;4.45;;;4.05;;
69256;SDS011;56376;53.356;-1.748;2022-07-23T06:45:04;6.30;;;4.88;;
69256;SDS011;56376;53.356;-1.748;2022-07-23T06:47:31;5.03;;;4.45;;
69256;SDS011;56376;53.356;-1.748;2022-07-23T06:49:56;5.32;;;4.82;;
69256;SDS011;56376;53.356;-1.748;2022-07-23T06:52:22;5.28;;;4.65;;
69256;SDS011;56376;53.356;-1.748;2022-07-23T06:54:47;5.72;;;5.15;;
69256;SDS011;56376;53.356;-1.748;2022-07-23T06:57:12;4.88;;;4.38;;
69256;SDS011;56376;53.356;-1.748;2022-07-23T06:59:38;5.35;;;4.85;;
69256;SDS011;56376;53.356;-1.748;2022-07-23T07:02:05;4.63;;;4.20;;
69256;SDS011;56376;53.356;-1.748;2022-07-23T07:04:31;4.80;;;4.40;;
69256;SDS011;56376;53.356;-1.748;2022-07-23T07:06:57;5.90;;;4.88;;
69256;SDS011;56376;53.356;-1.748;2022-07-23T07:09:22;5.50;;;4.70;;
69256;SDS011;56376;53.356;-1.748;2022-07-23T07:11:48;5.68;;;5.13;;
69256;SDS011;56376;53.356;-1.748;2022-07-23T07:14:13;5.43;;;4.70;;
69256;SDS011;56376;53.356;-1.748;2022-07-23T07:16:39;5.55;;;5.00;;
69256;SDS011;56376;53.356;-1.748;2022-07-23T07:19:04;6.18;;;5.57;;
69256;SDS011;56376;53.356;-1.748;2022-07-23T07:21:29;6.22;;;5.63;;
69256;SDS011;56376;53.356;-1.748;2022-07-23T07:23:55;8.35;;;7.28;;
69256;SDS011;56376;53.356;-1.748;2022-07-23T07:26:20;7.05;;;5.82;;
69256;SDS011;56376;53.356;-1.748;2022-07-23T07:28:46;7.18;;;6.15;;
69256;SDS011;56376;53.356;-1.748;2022-07-23T07:31:11;9.70;;;7.53;;
69256;SDS011;56376;53.356;-1.748;2022-07-23T07:33:37;10.65;;;8.57;;
69256;SDS011;56376;53.356;-1.748;2022-07-23T07:36:02;8.13;;;6.55;;
69256;SDS011;56376;53.356;-1.748;2022-07-23T07:38:29;7.20;;;6.05;;
69256;SDS011;56376;53.356;-1.748;2022-07-23T07:40:54;7.88;;;6.53;;
69256;SDS011;56376;53.356;-1.748;2022-07-23T07:43:19;6.90;;;6.03;;
69256;SDS011;56376;53.356;-1.748;2022-07-23T07:45:45;7.07;;;6.38;;
69256;SDS011;56376;53.356;-1.748;2022-07-23T07:48:10;7.45;;;6.60;;
69256;SDS011;56376;53.356;-1.748;2022-07-23T07:50:36;9.07;;;7.20;;
69256;SDS011;56376;53.356;-1.748;2022-07-23T07:53:01;7.03;;;6.32;;
69256;SDS011;56376;53.356;-1.748;2022-07-23T07:55:27;7.30;;;6.15;;
69256;SDS011;56376;53.356;-1.748;2022-07-23T07:57:53;9.00;;;7.85;;
69256;SDS011;56376;53.356;-1.748;2022-07-23T08:00:19;8.45;;;7.35;;
69256;SDS011;56376;53.356;-1.748;2022-07-23T08:05:18;9.82;;;7.65;;
69256;SDS011;56376;53.356;-1.748;2022-07-23T08:07:45;6.25;;;5.63;;
69256;SDS011;56376;53.356;-1.748;2022-07-23T08:10:11;6.60;;;5.88;;
69256;SDS011;56376;53.356;-1.748;2022-07-23T08:12:47;9.02;;;8.13;;
69256;SDS011;56376;53.356;-1.748;2022-07-23T08:15:16;8.00;;;7.07;;
69256;SDS011;56376;53.356;-1.748;2022-07-23T08:17:43;9.02;;;8.13;;
69256;SDS011;56376;53.356;-1.748;2022-07-23T08:20:10;8.43;;;7.32;;
69256;SDS011;56376;53.356;-1.748;2022-07-23T08:22:44;12.07;;;10.20;;
69256;SDS011;56376;53.356;-1.748;2022-07-23T08:25:15;9.65;;;8.35;;
69256;SDS011;56376;53.356;-1.748;2022-07-23T08:27:44;8.75;;;7.85;;
69256;SDS011;56376;53.356;-1.748;2022-07-23T08:30:10;8.55;;;7.68;;
69256;SDS011;56376;53.356;-1.748;2022-07-23T08:35:34;11.73;;;9.68;;
69256;SDS011;56376;53.356;-1.748;2022-07-23T08:38:02;11.85;;;10.65;;
69256;SDS011;56376;53.356;-1.748;2022-07-23T08:40:30;10.23;;;8.95;;
69256;SDS011;56376;53.356;-1.748;2022-07-23T08:42:57;9.85;;;8.65;;
69256;SDS011;56376;53.356;-1.748;2022-07-23T08:45:23;9.45;;;8.48;;
69256;SDS011;56376;53.356;-1.748;2022-07-23T08:47:53;9.88;;;8.35;;
69256;SDS011;56376;53.356;-1.748;2022-07-23T08:50:21;10.23;;;8.15;;
69256;SDS011;56376;53.356;-1.748;2022-07-23T08:52:48;9.65;;;7.95;;
69256;SDS011;56376;53.356;-1.748;2022-07-23T08:55:18;12.40;;;10.23;;
69256;SDS011;56376;53.356;-1.748;2022-07-23T08:57:48;9.50;;;8.50;;
69256;SDS011;56376;53.356;-1.748;2022-07-23T09:00:16;9.35;;;8.32;;
69256;SDS011;56376;53.356;-1.748;2022-07-23T09:02:43;8.32;;;6.93;;
69256;SDS011;56376;53.356;-1.748;2022-07-23T09:05:10;8.90;;;7.35;;
69256;SDS011;56376;53.356;-1.748;2022-07-23T09:07:36;10.27;;;9.27;;
69256;SDS011;56376;53.356;-1.748;2022-07-23T09:10:08;9.20;;;8.30;;
69256;SDS011;56376;53.356;-1.748;2022-07-23T09:12:35;9.53;;;8.23;;
69256;SDS011;56376;53.356;-1.748;2022-07-23T09:15:05;9.50;;;6.90;;
69256;SDS011;56376;53.356;-1.748;2022-07-23T09:17:38;8.60;;;7.60;;
69256;SDS011;56376;53.356;-1.748;2022-07-23T09:20:13;8.27;;;7.32;;
69256;SDS011;56376;53.356;-1.748;2022-07-23T09:22:47;8.38;;;7.18;;
69256;SDS011;56376;53.356;-1.748;2022-07-23T09:25:15;9.23;;;7.05;;
69256;SDS011;56376;53.356;-1.748;2022-07-23T09:27:51;9.13;;;7.50;;
69256;SDS011;56376;53.356;-1.748;2022-07-23T09:30:18;8.27;;;7.22;;
69256;SDS011;56376;53.356;-1.748;2022-07-23T09:33:03;8.23;;;7.03;;
69256;SDS011;56376;53.356;-1.748;2022-07-23T09:38:28;8.10;;;7.30;;
69256;SDS011;56376;53.356;-1.748;2022-07-23T09:41:09;8.38;;;7.03;;
69256;SDS011;56376;53.356;-1.748;2022-07-23T09:43:35;7.97;;;7.20;;
69256;SDS011;56376;53.356;-1.748;2022-07-23T09:48:50;8.73;;;7.85;;
69256;SDS011;56376;53.356;-1.748;2022-07-23T09:51:17;7.40;;;6.57;;
69256;SDS011;56376;53.356;-1.748;2022-07-23T09:53:52;6.78;;;6.15;;
69256;SDS011;56376;53.356;-1.748;2022-07-23T09:56:17;7.45;;;6.45;;
69256;SDS011;56376;53.356;-1.748;2022-07-23T09:58:45;6.50;;;5.82;;
69256;SDS011;56376;53.356;-1.748;2022-07-23T10:01:14;7.60;;;6.78;;
69256;SDS011;56376;53.356;-1.748;2022-07-23T10:03:41;6.90;;;6.20;;
69256;SDS011;56376;53.356;-1.748;2022-07-23T10:06:08;8.07;;;7.30;;
69256;SDS011;56376;53.356;-1.748;2022-07-23T10:08:39;7.60;;;6.53;;
69256;SDS011;56376;53.356;-1.748;2022-07-23T10:11:06;7.35;;;6.63;;
69256;SDS011;56376;53.356;-1.748;2022-07-23T10:13:32;8.43;;;6.90;;
69256;SDS011;56376;53.356;-1.748;2022-07-23T10:15:59;7.93;;;6.50;;
69256;SDS011;56376;53.356;-1.748;2022-07-23T10:18:25;7.47;;;6.38;;
69256;SDS011;56376;53.356;-1.748;2022-07-23T10:20:50;7.53;;;5.20;;
69256;SDS011;56376;53.356;-1.748;2022-07-23T10:25:57;6.88;;;5.82;;
69256;SDS011;56376;53.356;-1.748;2022-07-23T10:28:51;5.55;;;4.85;;
69256;SDS011;56376;53.356;-1.748;2022-07-23T10:37:11;5.78;;;5.28;;
69256;SDS011;56376;53.356;-1.748;2022-07-23T10:39:46;7.03;;;5.75;;
69256;SDS011;56376;53.356;-1.748;2022-07-23T10:42:12;5.25;;;4.75;;
69256;SDS011;56376;53.356;-1.748;2022-07-23T10:44:40;7.50;;;5.70;;
69256;SDS011;56376;53.356;-1.748;2022-07-23T10:47:07;7.47;;;5.28;;
69256;SDS011;56376;53.356;-1.748;2022-07-23T10:49:52;7.68;;;5.60;;
69256;SDS011;56376;53.356;-1.748;2022-07-23T10:52:19;4.97;;;4.47;;
69256;SDS011;56376;53.356;-1.748;2022-07-23T10:54:56;4.82;;;4.35;;
69256;SDS011;56376;53.356;-1.748;2022-07-23T10:57:52;4.30;;;3.42;;
69256;SDS011;56376;53.356;-1.748;2022-07-23T11:00:25;4.05;;;3.65;;
69256;SDS011;56376;53.356;-1.748;2022-07-23T11:02:54;4.00;;;3.60;;
69256;SDS011;56376;53.356;-1.748;2022-07-23T11:05:22;5.68;;;3.78;;
69256;SDS011;56376;53.356;-1.748;2022-07-23T11:32:19;3.85;;;2.60;;
69256;SDS011;56376;53.356;-1.748;2022-07-23T11:34:49;3.17;;;2.83;;
69256;SDS011;56376;53.356;-1.748;2022-07-23T11:37:37;3.13;;;2.30;;
69256;SDS011;56376;53.356;-1.748;2022-07-23T11:40:05;2.97;;;2.67;;
69256;SDS011;56376;53.356;-1.748;2022-07-23T11:42:34;2.75;;;2.47;;
69256;SDS011;56376;53.356;-1.748;2022-07-23T11:45:01;3.58;;;3.28;;
69256;SDS011;56376;53.356;-1.748;2022-07-23T11:47:27;2.50;;;2.30;;
69256;SDS011;56376;53.356;-1.748;2022-07-23T11:49:56;3.03;;;2.47;;
69256;SDS011;56376;53.356;-1.748;2022-07-23T11:52:26;2.40;;;2.20;;
69256;SDS011;56376;53.356;-1.748;2022-07-23T11:57:28;2.83;;;2.30;;
69256;SDS011;56376;53.356;-1.748;2022-07-23T11:59:56;2.20;;;1.90;;
69256;SDS011;56376;53.356;-1.748;2022-07-23T12:02:25;2.92;;;2.05;;
69256;SDS011;56376;53.356;-1.748;2022-07-23T12:04:51;2.53;;;2.15;;
69256;SDS011;56376;53.356;-1.748;2022-07-23T12:07:37;2.38;;;2.00;;
69256;SDS011;56376;53.356;-1.748;2022-07-23T12:10:26;1.92;;;1.73;;
69256;SDS011;56376;53.356;-1.748;2022-07-23T12:12:58;2.10;;;1.92;;
69256;SDS011;56376;53.356;-1.748;2022-07-23T12:15:33;3.05;;;2.13;;
69256;SDS011;56376;53.356;-1.748;2022-07-23T12:18:07;3.05;;;1.92;;
69256;SDS011;56376;53.356;-1.748;2022-07-23T12:20:35;2.30;;;1.85;;
69256;SDS011;56376;53.356;-1.748;2022-07-23T12:23:03;2.17;;;1.90;;
69256;SDS011;56376;53.356;-1.748;2022-07-23T12:25:32;2.92;;;2.35;;
69256;SDS011;56376;53.356;-1.748;2022-07-23T12:30:28;2.20;;;2.00;;
69256;SDS011;56376;53.356;-1.748;2022-07-23T12:32:57;2.90;;;2.00;;
69256;SDS011;56376;53.356;-1.748;2022-07-23T12:35:29;1.98;;;1.80;;
69256;SDS011;56376;53.356;-1.748;2022-07-23T12:37:59;2.22;;;2.03;;
69256;SDS011;56376;53.356;-1.748;2022-07-23T12:43:30;5.05;;;2.42;;
69256;SDS011;56376;53.356;-1.748;2022-07-23T12:48:49;2.67;;;2.10;;
69256;SDS011;56376;53.356;-1.748;2022-07-23T12:51:19;3.30;;;2.67;;
69256;SDS011;56376;53.356;-1.748;2022-07-23T12:53:51;2.70;;;2.50;;
69256;SDS011;56376;53.356;-1.748;2022-07-23T12:58:59;3.78;;;2.30;;
69256;SDS011;56376;53.356;-1.748;2022-07-23T13:01:44;4.28;;;2.55;;
69256;SDS011;56376;53.356;-1.748;2022-07-23T13:04:14;3.00;;;2.60;;
69256;SDS011;56376;53.356;-1.748;2022-07-23T13:06:44;2.28;;;2.08;;
69256;SDS011;56376;53.356;-1.748;2022-07-23T13:09:14;2.20;;;2.00;;
69256;SDS011;56376;53.356;-1.748;2022-07-23T13:11:41;2.53;;;2.10;;
69256;SDS011;56376;53.356;-1.748;2022-07-23T13:14:07;3.40;;;2.20;;
69256;SDS011;56376;53.356;-1.748;2022-07-23T13:16:32;2.40;;;2.20;;
69256;SDS011;56376;53.356;-1.748;2022-07-23T13:18:59;2.67;;;2.45;;
69256;SDS011;56376;53.356;-1.748;2022-07-23T13:21:26;2.33;;;2.13;;
69256;SDS011;56376;53.356;-1.748;2022-07-23T13:23:52;2.83;;;2.53;;
69256;SDS011;56376;53.356;-1.748;2022-07-23T13:26:18;2.50;;;2.30;;
69256;SDS011;56376;53.356;-1.748;2022-07-23T13:28:44;2.83;;;2.50;;
69256;SDS011;56376;53.356;-1.748;2022-07-23T13:31:10;4.03;;;2.85;;
69256;SDS011;56376;53.356;-1.748;2022-07-23T13:33:35;2.85;;;2.60;;
69256;SDS011;56376;53.356;-1.748;2022-07-23T13:36:01;3.95;;;2.67;;
69256;SDS011;56376;53.356;-1.748;2022-07-23T13:38:27;3.20;;;2.90;;
69256;SDS011;56376;53.356;-1.748;2022-07-23T13:40:53;3.10;;;2.80;;
69256;SDS011;56376;53.356;-1.748;2022-07-23T13:43:20;2.70;;;2.47;;
69256;SDS011;56376;53.356;-1.748;2022-07-23T13:45:48;3.83;;;2.90;;
69256;SDS011;56376;53.356;-1.748;2022-07-23T13:48:14;3.03;;;2.72;;
69256;SDS011;56376;53.356;-1.748;2022-07-23T13:50:40;3.38;;;3.08;;
69256;SDS011;56376;53.356;-1.748;2022-07-23T13:53:07;4.80;;;3.55;;
69256;SDS011;56376;53.356;-1.748;2022-07-23T13:55:34;3.95;;;3.65;;
69256;SDS011;56376;53.356;-1.748;2022-07-23T13:58:00;3.80;;;3.47;;
69256;SDS011;56376;53.356;-1.748;2022-07-23T14:00:26;4.60;;;4.20;;
69256;SDS011;56376;53.356;-1.748;2022-07-23T14:02:54;4.53;;;3.58;;
69256;SDS011;56376;53.356;-1.748;2022-07-23T14:05:19;4.63;;;3.83;;
69256;SDS011;56376;53.356;-1.748;2022-07-23T14:07:45;3.60;;;3.30;;
69256;SDS011;56376;53.356;-1.748;2022-07-23T14:10:12;6.45;;;4.35;;
69256;SDS011;56376;53.356;-1.748;2022-07-23T14:12:38;5.35;;;4.80;;
69256;SDS011;56376;53.356;-1.748;2022-07-23T14:15:04;3.60;;;3.30;;
69256;SDS011;56376;53.356;-1.748;2022-07-23T14:17:31;4.13;;;3.72;;
69256;SDS011;56376;53.356;-1.748;2022-07-23T14:19:58;3.90;;;3.60;;
69256;SDS011;56376;53.356;-1.748;2022-07-23T14:22:24;4.53;;;4.13;;
69256;SDS011;56376;53.356;-1.748;2022-07-23T14:24:50;4.43;;;4.03;;
69256;SDS011;56376;53.356;-1.748;2022-07-23T14:27:15;4.18;;;3.78;;
69256;SDS011;56376;53.356;-1.748;2022-07-23T14:29:41;4.32;;;3.92;;
69256;SDS011;56376;53.356;-1.748;2022-07-23T14:32:06;4.90;;;4.40;;
69256;SDS011;56376;53.356;-1.748;2022-07-23T14:34:32;4.93;;;4.03;;
69256;SDS011;56376;53.356;-1.748;2022-07-23T14:36:58;4.43;;;4.03;;
69256;SDS011;56376;53.356;-1.748;2022-07-23T14:39:24;5.38;;;4.88;;
69256;SDS011;56376;53.356;-1.748;2022-07-23T14:41:50;5.30;;;4.82;;
69256;SDS011;56376;53.356;-1.748;2022-07-23T14:44:16;5.43;;;4.40;;
69256;SDS011;56376;53.356;-1.748;2022-07-23T14:46:41;4.53;;;4.13;;
69256;SDS011;56376;53.356;-1.748;2022-07-23T14:49:06;5.18;;;4.70;;
69256;SDS011;56376;53.356;-1.748;2022-07-23T14:51:32;4.60;;;4.00;;
69256;SDS011;56376;53.356;-1.748;2022-07-23T14:53:58;5.05;;;4.55;;
69256;SDS011;56376;53.356;-1.748;2022-07-23T14:56:23;4.93;;;4.43;;
69256;SDS011;56376;53.356;-1.748;2022-07-23T14:58:49;4.28;;;3.80;;
69256;SDS011;56376;53.356;-1.748;2022-07-23T15:01:14;4.50;;;4.10;;
69256;SDS011;56376;53.356;-1.748;2022-07-23T15:03:40;5.35;;;4.40;;
69256;SDS011;56376;53.356;-1.748;2022-07-23T15:06:06;7.80;;;4.57;;
69256;SDS011;56376;53.356;-1.748;2022-07-23T15:08:31;4.25;;;3.85;;
69256;SDS011;56376;53.356;-1.748;2022-07-23T15:10:57;4.13;;;3.72;;
69256;SDS011;56376;53.356;-1.748;2022-07-23T15:13:22;5.70;;;4.75;;
69256;SDS011;56376;53.356;-1.748;2022-07-23T15:15:48;4.88;;;4.30;;
69256;SDS011;56376;53.356;-1.748;2022-07-23T15:18:13;4.30;;;3.90;;
69256;SDS011;56376;53.356;-1.748;2022-07-23T15:20:39;3.78;;;3.42;;
69256;SDS011;56376;53.356;-1.748;2022-07-23T15:23:04;4.50;;;4.07;;
69256;SDS011;56376;53.356;-1.748;2022-07-23T15:25:31;7.60;;;4.68;;
69256;SDS011;56376;53.356;-1.748;2022-07-23T15:27:57;5.28;;;4.28;;
69256;SDS011;56376;53.356;-1.748;2022-07-23T15:30:24;3.97;;;3.63;;